sensor_id;sensor_type;location;lat;lon;timestamp;pressure;altitude;pressure_sealevel;temperature;humidity
77299;BME280;66361;52.034;20.656;2023-02-28T00:00:00;101277.44;;;-6.45;89.59
77299;BME280;66361;52.034;20.656;2023-02-28T00:04:30;101277.34;;;-6.49;90.88
77299;BME280;66361;52.034;20.656;2023-02-28T00:08:33;101286.72;;;-6.51;91.22
77299;BME280;66361;52.034;20.656;2023-02-28T00:12:37;101279.72;;;-6.57;90.80
77299;BME280;66361;52.034;20.656;2023-02-28T00:16:41;101284.72;;;-6.63;90.34
77299;BME280;66361;52.034;20.656;2023-02-28T00:20:45;101287.03;;;-6.73;89.56
77299;BME280;66361;52.034;20.656;2023-02-28T00:24:48;101291.03;;;-6.85;88.29
77299;BME280;66361;52.034;20.656;2023-02-28T00:28:52;101297.81;;;-6.87;90.74
77299;BME280;66361;52.034;20.656;2023-02-28T00:33:04;101287.41;;;-6.93;92.53
77299;BME280;66361;52.034;20.656;2023-02-28T00:37:09;101294.06;;;-6.99;91.04
77299;BME280;66361;52.034;20.656;2023-02-28T00:41:15;101293.91;;;-7.05;90.64
77299;BME280;66361;52.034;20.656;2023-02-28T00:45:18;101297.13;;;-7.14;92.09
77299;BME280;66361;52.034;20.656;2023-02-28T00:49:23;101297.81;;;-7.19;93.74
77299;BME280;66361;52.034;20.656;2023-02-28T00:53:28;101291.66;;;-7.24;95.41
77299;BME280;66361;52.034;20.656;2023-02-28T00:57:31;101290.72;;;-7.28;94.87
77299;BME280;66361;52.034;20.656;2023-02-28T01:01:34;101297.41;;;-7.35;94.32
77299;BME280;66361;52.034;20.656;2023-02-28T01:05:39;101294.84;;;-7.36;94.88
77299;BME280;66361;52.034;20.656;2023-02-28T01:09:43;101283.69;;;-7.37;95.33
77299;BME280;66361;52.034;20.656;2023-02-28T01:13:48;101291.25;;;-7.41;96.78
77299;BME280;66361;52.034;20.656;2023-02-28T01:17:51;101295.38;;;-7.48;96.25
77299;BME280;66361;52.034;20.656;2023-02-28T01:21:55;101301.22;;;-7.52;97.02
77299;BME280;66361;52.034;20.656;2023-02-28T01:26:05;101290.91;;;-7.53;98.17
77299;BME280;66361;52.034;20.656;2023-02-28T01:30:09;101295.91;;;-7.58;97.40
77299;BME280;66361;52.034;20.656;2023-02-28T01:34:12;101294.97;;;-7.61;96.44
77299;BME280;66361;52.034;20.656;2023-02-28T01:38:17;101294.09;;;-7.62;98.69
77299;BME280;66361;52.034;20.656;2023-02-28T01:42:23;101295.75;;;-7.64;98.69
77299;BME280;66361;52.034;20.656;2023-02-28T01:46:45;101291.50;;;-7.63;100.00
77299;BME280;66361;52.034;20.656;2023-02-28T01:50:49;101292.38;;;-7.63;100.00
77299;BME280;66361;52.034;20.656;2023-02-28T01:54:55;101299.13;;;-7.65;100.00
77299;BME280;66361;52.034;20.656;2023-02-28T01:58:59;101288.78;;;-7.68;100.00
77299;BME280;66361;52.034;20.656;2023-02-28T02:03:07;101286.97;;;-7.72;100.00
77299;BME280;66361;52.034;20.656;2023-02-28T02:07:12;101296.31;;;-7.74;100.00
77299;BME280;66361;52.034;20.656;2023-02-28T02:11:20;101293.63;;;-7.77;100.00
77299;BME280;66361;52.034;20.656;2023-02-28T02:15:26;101284.28;;;-7.76;100.00
77299;BME280;66361;52.034;20.656;2023-02-28T02:19:52;101280.00;;;-7.76;100.00
77299;BME280;66361;52.034;20.656;2023-02-28T02:24:32;101284.28;;;-7.76;100.00
77299;BME280;66361;52.034;20.656;2023-02-28T02:29:01;101283.44;;;-7.75;100.00
77299;BME280;66361;52.034;20.656;2023-02-28T02:33:36;101279.94;;;-7.79;100.00
77299;BME280;66361;52.034;20.656;2023-02-28T02:37:48;101289.38;;;-7.76;100.00
77299;BME280;66361;52.034;20.656;2023-02-28T02:41:56;101293.56;;;-7.80;100.00
77299;BME280;66361;52.034;20.656;2023-02-28T02:46:06;101293.41;;;-7.86;100.00
77299;BME280;66361;52.034;20.656;2023-02-28T02:50:15;101294.03;;;-7.93;100.00
77299;BME280;66361;52.034;20.656;2023-02-28T02:54:27;101298.44;;;-7.89;100.00
77299;BME280;66361;52.034;20.656;2023-02-28T02:58:39;101296.78;;;-7.87;100.00
77299;BME280;66361;52.034;20.656;2023-02-28T03:02:45;101306.13;;;-7.89;100.00
77299;BME280;66361;52.034;20.656;2023-02-28T03:06:51;101308.63;;;-7.91;100.00
77299;BME280;66361;52.034;20.656;2023-02-28T03:10:59;101306.00;;;-7.92;100.00
77299;BME280;66361;52.034;20.656;2023-02-28T03:15:08;101305.09;;;-7.94;100.00
77299;BME280;66361;52.034;20.656;2023-02-28T03:19:26;101299.09;;;-7.95;100.00
77299;BME280;66361;52.034;20.656;2023-02-28T03:23:37;101301.66;;;-7.96;100.00
77299;BME280;66361;52.034;20.656;2023-02-28T03:27:46;101305.19;;;-7.91;100.00
77299;BME280;66361;52.034;20.656;2023-02-28T03:31:58;101306.19;;;-7.86;100.00
77299;BME280;66361;52.034;20.656;2023-02-28T03:36:05;101318.44;;;-7.76;100.00
77299;BME280;66361;52.034;20.656;2023-02-28T03:40:12;101313.41;;;-7.73;100.00
77299;BME280;66361;52.034;20.656;2023-02-28T03:44:21;101312.59;;;-7.72;100.00
77299;BME280;66361;52.034;20.656;2023-02-28T03:48:32;101323.66;;;-7.73;100.00
77299;BME280;66361;52.034;20.656;2023-02-28T03:52:39;101321.09;;;-7.73;100.00
77299;BME280;66361;52.034;20.656;2023-02-28T03:56:48;101323.72;;;-7.71;100.00
77299;BME280;66361;52.034;20.656;2023-02-28T04:01:00;101330.44;;;-7.75;100.00
77299;BME280;66361;52.034;20.656;2023-02-28T04:05:10;101324.44;;;-7.75;100.00
77299;BME280;66361;52.034;20.656;2023-02-28T04:09:14;101333.81;;;-7.76;100.00
77299;BME280;66361;52.034;20.656;2023-02-28T04:13:18;101325.31;;;-7.75;100.00
77299;BME280;66361;52.034;20.656;2023-02-28T04:17:23;101328.84;;;-7.71;100.00
77299;BME280;66361;52.034;20.656;2023-02-28T04:21:26;101328.97;;;-7.67;100.00
77299;BME280;66361;52.034;20.656;2023-02-28T04:25:30;101327.22;;;-7.68;100.00
77299;BME280;66361;52.034;20.656;2023-02-28T04:29:35;101325.69;;;-7.63;100.00
77299;BME280;66361;52.034;20.656;2023-02-28T04:33:40;101326.44;;;-7.65;100.00
77299;BME280;66361;52.034;20.656;2023-02-28T04:37:45;101334.94;;;-7.68;100.00
77299;BME280;66361;52.034;20.656;2023-02-28T04:41:48;101338.34;;;-7.67;100.00
77299;BME280;66361;52.034;20.656;2023-02-28T04:45:51;101331.53;;;-7.67;100.00
77299;BME280;66361;52.034;20.656;2023-02-28T04:49:57;101330.66;;;-7.67;100.00
77299;BME280;66361;52.034;20.656;2023-02-28T04:54:00;101327.16;;;-7.71;100.00
77299;BME280;66361;52.034;20.656;2023-02-28T04:58:03;101336.59;;;-7.70;100.00
77299;BME280;66361;52.034;20.656;2023-02-28T05:02:08;101328.69;;;-7.76;100.00
77299;BME280;66361;52.034;20.656;2023-02-28T05:06:13;101342.31;;;-7.78;100.00
77299;BME280;66361;52.034;20.656;2023-02-28T05:10:19;101337.13;;;-7.80;100.00
77299;BME280;66361;52.034;20.656;2023-02-28T05:14:25;101340.56;;;-7.79;100.00
77299;BME280;66361;52.034;20.656;2023-02-28T05:18:28;101337.03;;;-7.83;100.00
77299;BME280;66361;52.034;20.656;2023-02-28T05:22:33;101345.59;;;-7.83;100.00
77299;BME280;66361;52.034;20.656;2023-02-28T05:26:38;101355.13;;;-7.78;100.00
77299;BME280;66361;52.034;20.656;2023-02-28T05:30:41;101354.41;;;-7.73;100.00
77299;BME280;66361;52.034;20.656;2023-02-28T05:34:44;101359.66;;;-7.70;100.00
77299;BME280;66361;52.034;20.656;2023-02-28T05:38:51;101358.88;;;-7.67;100.00
77299;BME280;66361;52.034;20.656;2023-02-28T05:42:56;101361.56;;;-7.63;100.00
77299;BME280;66361;52.034;20.656;2023-02-28T05:46:58;101367.69;;;-7.58;100.00
77299;BME280;66361;52.034;20.656;2023-02-28T05:51:01;101367.78;;;-7.55;100.00
77299;BME280;66361;52.034;20.656;2023-02-28T05:55:07;101374.03;;;-7.45;100.00
77299;BME280;66361;52.034;20.656;2023-02-28T05:59:10;101386.34;;;-7.34;100.00
77299;BME280;66361;52.034;20.656;2023-02-28T06:03:13;101382.38;;;-7.21;100.00
77299;BME280;66361;52.034;20.656;2023-02-28T06:07:16;101395.69;;;-7.04;100.00
77299;BME280;66361;52.034;20.656;2023-02-28T06:11:21;101396.16;;;-6.88;100.00
77299;BME280;66361;52.034;20.656;2023-02-28T06:15:29;101393.22;;;-6.70;100.00
77299;BME280;66361;52.034;20.656;2023-02-28T06:19:32;101392.19;;;-6.44;100.00
77299;BME280;66361;52.034;20.656;2023-02-28T06:23:36;101384.50;;;-5.70;100.00
77299;BME280;66361;52.034;20.656;2023-02-28T06:27:40;101389.97;;;-3.03;94.59
77299;BME280;66361;52.034;20.656;2023-02-28T06:31:43;101383.06;;;-0.49;85.61
77299;BME280;66361;52.034;20.656;2023-02-28T06:35:46;101392.16;;;1.51;76.22
77299;BME280;66361;52.034;20.656;2023-02-28T06:39:50;101390.75;;;3.01;68.34
77299;BME280;66361;52.034;20.656;2023-02-28T06:43:54;101390.41;;;4.38;63.21
77299;BME280;66361;52.034;20.656;2023-02-28T06:47:59;101401.97;;;5.57;59.00
77299;BME280;66361;52.034;20.656;2023-02-28T06:52:05;101398.13;;;6.74;54.03
77299;BME280;66361;52.034;20.656;2023-02-28T06:56:09;101399.84;;;7.66;49.19
77299;BME280;66361;52.034;20.656;2023-02-28T07:00:15;101395.41;;;8.47;48.35
77299;BME280;66361;52.034;20.656;2023-02-28T07:04:21;101395.25;;;9.24;43.63
77299;BME280;66361;52.034;20.656;2023-02-28T07:08:24;101382.53;;;10.02;41.93
77299;BME280;66361;52.034;20.656;2023-02-28T07:12:32;101384.75;;;10.53;38.28
77299;BME280;66361;52.034;20.656;2023-02-28T07:16:37;101392.94;;;10.88;36.55
77299;BME280;66361;52.034;20.656;2023-02-28T07:20:40;101399.16;;;11.05;35.30
77299;BME280;66361;52.034;20.656;2023-02-28T07:24:44;101389.88;;;11.36;33.27
77299;BME280;66361;52.034;20.656;2023-02-28T07:28:47;101392.81;;;12.03;30.87
77299;BME280;66361;52.034;20.656;2023-02-28T07:32:52;101398.28;;;12.51;31.88
77299;BME280;66361;52.034;20.656;2023-02-28T07:36:56;101401.13;;;12.66;32.60
77299;BME280;66361;52.034;20.656;2023-02-28T07:40:59;101402.31;;;13.10;30.07
77299;BME280;66361;52.034;20.656;2023-02-28T07:45:05;101404.66;;;13.32;29.16
77299;BME280;66361;52.034;20.656;2023-02-28T07:49:09;101395.78;;;13.48;27.60
77299;BME280;66361;52.034;20.656;2023-02-28T07:53:12;101398.97;;;13.55;27.23
77299;BME280;66361;52.034;20.656;2023-02-28T07:57:15;101404.25;;;13.39;25.54
77299;BME280;66361;52.034;20.656;2023-02-28T08:01:18;101409.50;;;13.41;27.45
77299;BME280;66361;52.034;20.656;2023-02-28T08:05:26;101392.38;;;13.62;27.13
77299;BME280;66361;52.034;20.656;2023-02-28T08:09:28;101404.69;;;13.47;25.56
77299;BME280;66361;52.034;20.656;2023-02-28T08:13:33;101400.31;;;13.31;25.96
77299;BME280;66361;52.034;20.656;2023-02-28T08:17:36;101401.94;;;13.00;27.26
77299;BME280;66361;52.034;20.656;2023-02-28T08:21:43;101392.16;;;13.34;27.47
77299;BME280;66361;52.034;20.656;2023-02-28T08:25:54;101402.16;;;13.13;27.34
77299;BME280;66361;52.034;20.656;2023-02-28T08:29:59;101393.41;;;13.11;27.08
77299;BME280;66361;52.034;20.656;2023-02-28T08:34:05;101391.16;;;13.36;25.18
77299;BME280;66361;52.034;20.656;2023-02-28T08:38:10;101390.34;;;12.69;26.38
77299;BME280;66361;52.034;20.656;2023-02-28T08:42:13;101394.25;;;12.79;27.11
77299;BME280;66361;52.034;20.656;2023-02-28T08:46:17;101382.75;;;12.28;28.02
77299;BME280;66361;52.034;20.656;2023-02-28T08:50:22;101381.88;;;12.45;29.10
77299;BME280;66361;52.034;20.656;2023-02-28T08:54:27;101380.28;;;12.06;28.47
77299;BME280;66361;52.034;20.656;2023-02-28T08:58:33;101385.09;;;11.44;27.78
77299;BME280;66361;52.034;20.656;2023-02-28T09:02:36;101378.66;;;10.92;29.20
77299;BME280;66361;52.034;20.656;2023-02-28T09:06:39;101385.34;;;9.98;32.29
77299;BME280;66361;52.034;20.656;2023-02-28T09:10:44;101390.50;;;9.57;32.27
77299;BME280;66361;52.034;20.656;2023-02-28T09:14:47;101389.88;;;8.55;33.79
77299;BME280;66361;52.034;20.656;2023-02-28T09:18:52;101405.44;;;8.36;34.07
77299;BME280;66361;52.034;20.656;2023-02-28T09:22:55;101392.84;;;8.46;33.19
77299;BME280;66361;52.034;20.656;2023-02-28T09:27:01;101395.88;;;8.34;35.13
77299;BME280;66361;52.034;20.656;2023-02-28T09:31:12;101404.56;;;8.87;32.37
77299;BME280;66361;52.034;20.656;2023-02-28T09:35:25;101408.81;;;8.91;33.54
77299;BME280;66361;52.034;20.656;2023-02-28T09:39:28;101405.59;;;8.32;35.06
77299;BME280;66361;52.034;20.656;2023-02-28T09:43:36;101403.63;;;8.12;33.37
77299;BME280;66361;52.034;20.656;2023-02-28T09:47:45;101401.03;;;7.84;35.81
77299;BME280;66361;52.034;20.656;2023-02-28T09:51:53;101402.19;;;8.02;34.30
77299;BME280;66361;52.034;20.656;2023-02-28T09:56:02;101391.53;;;7.80;34.21
77299;BME280;66361;52.034;20.656;2023-02-28T10:00:13;101403.09;;;7.74;36.07
77299;BME280;66361;52.034;20.656;2023-02-28T10:04:35;101399.38;;;8.34;34.22
77299;BME280;66361;52.034;20.656;2023-02-28T10:08:42;101403.00;;;8.81;32.40
77299;BME280;66361;52.034;20.656;2023-02-28T10:12:56;101401.34;;;8.78;33.44
77299;BME280;66361;52.034;20.656;2023-02-28T10:17:05;101399.31;;;9.56;31.40
77299;BME280;66361;52.034;20.656;2023-02-28T10:21:18;101405.31;;;9.60;32.09
77299;BME280;66361;52.034;20.656;2023-02-28T10:25:26;101402.78;;;9.10;32.05
77299;BME280;66361;52.034;20.656;2023-02-28T10:29:31;101397.53;;;10.00;30.46
77299;BME280;66361;52.034;20.656;2023-02-28T10:33:37;101399.78;;;10.11;31.43
77299;BME280;66361;52.034;20.656;2023-02-28T10:37:43;101396.41;;;10.28;31.10
77299;BME280;66361;52.034;20.656;2023-02-28T10:41:47;101395.19;;;10.36;30.71
77299;BME280;66361;52.034;20.656;2023-02-28T10:45:59;101389.88;;;9.27;31.83
77299;BME280;66361;52.034;20.656;2023-02-28T10:50:06;101379.75;;;9.17;34.67
77299;BME280;66361;52.034;20.656;2023-02-28T10:54:30;101386.72;;;8.95;33.02
77299;BME280;66361;52.034;20.656;2023-02-28T10:58:47;101376.16;;;8.20;34.02
77299;BME280;66361;52.034;20.656;2023-02-28T11:02:51;101373.41;;;7.43;36.08
77299;BME280;66361;52.034;20.656;2023-02-28T11:06:59;101367.56;;;6.73;38.51
77299;BME280;66361;52.034;20.656;2023-02-28T11:11:06;101368.84;;;6.25;38.30
77299;BME280;66361;52.034;20.656;2023-02-28T11:15:22;101370.19;;;5.72;41.25
77299;BME280;66361;52.034;20.656;2023-02-28T11:19:29;101375.97;;;5.48;41.07
77299;BME280;66361;52.034;20.656;2023-02-28T11:23:40;101359.03;;;5.25;42.94
77299;BME280;66361;52.034;20.656;2023-02-28T11:27:47;101356.88;;;5.03;43.16
77299;BME280;66361;52.034;20.656;2023-02-28T11:32:12;101348.88;;;5.12;44.86
77299;BME280;66361;52.034;20.656;2023-02-28T11:36:21;101344.25;;;4.81;41.97
77299;BME280;66361;52.034;20.656;2023-02-28T11:40:34;101341.81;;;4.72;43.37
77299;BME280;66361;52.034;20.656;2023-02-28T11:45:03;101329.75;;;4.67;45.02
77299;BME280;66361;52.034;20.656;2023-02-28T11:49:24;101326.06;;;4.32;45.84
77299;BME280;66361;52.034;20.656;2023-02-28T11:53:44;101319.88;;;4.36;45.78
77299;BME280;66361;52.034;20.656;2023-02-28T11:58:29;101309.72;;;4.21;44.84
77299;BME280;66361;52.034;20.656;2023-02-28T12:02:49;101292.31;;;4.19;46.68
77299;BME280;66361;52.034;20.656;2023-02-28T12:07:01;101304.56;;;4.17;47.62
77299;BME280;66361;52.034;20.656;2023-02-28T12:11:11;101297.72;;;4.10;47.73
77299;BME280;66361;52.034;20.656;2023-02-28T12:15:41;101296.94;;;4.05;47.04
77299;BME280;66361;52.034;20.656;2023-02-28T12:19:57;101283.41;;;3.81;47.29
77299;BME280;66361;52.034;20.656;2023-02-28T12:24:21;101287.25;;;3.61;46.40
77299;BME280;66361;52.034;20.656;2023-02-28T12:28:33;101281.38;;;3.48;47.50
77299;BME280;66361;52.034;20.656;2023-02-28T12:32:41;101275.31;;;3.46;48.39
77299;BME280;66361;52.034;20.656;2023-02-28T12:36:47;101272.78;;;3.43;49.49
77299;BME280;66361;52.034;20.656;2023-02-28T12:40:54;101270.34;;;3.29;47.50
77299;BME280;66361;52.034;20.656;2023-02-28T12:45:01;101266.09;;;3.24;48.63
77299;BME280;66361;52.034;20.656;2023-02-28T12:49:15;101254.81;;;3.22;49.23
77299;BME280;66361;52.034;20.656;2023-02-28T12:53:25;101257.41;;;3.25;50.56
77299;BME280;66361;52.034;20.656;2023-02-28T12:57:34;101251.22;;;3.30;50.12
77299;BME280;66361;52.034;20.656;2023-02-28T13:01:47;101238.28;;;3.23;49.65
77299;BME280;66361;52.034;20.656;2023-02-28T13:06:10;101241.00;;;3.17;49.34
77299;BME280;66361;52.034;20.656;2023-02-28T13:10:21;101246.28;;;3.11;49.24
77299;BME280;66361;52.034;20.656;2023-02-28T13:14:29;101247.22;;;3.08;49.98
77299;BME280;66361;52.034;20.656;2023-02-28T13:18:39;101247.22;;;3.08;50.81
77299;BME280;66361;52.034;20.656;2023-02-28T13:22:50;101236.78;;;3.07;49.86
77299;BME280;66361;52.034;20.656;2023-02-28T13:32:20;101236.28;;;2.83;50.19
77299;BME280;66361;52.034;20.656;2023-02-28T13:36:32;101240.63;;;2.83;51.48
77299;BME280;66361;52.034;20.656;2023-02-28T13:40:37;101236.41;;;2.73;51.50
77299;BME280;66361;52.034;20.656;2023-02-28T13:49:23;101240.94;;;2.59;53.09
77299;BME280;66361;52.034;20.656;2023-02-28T13:53:54;101235.00;;;2.49;52.19
77299;BME280;66361;52.034;20.656;2023-02-28T13:58:10;101231.63;;;2.41;52.60
77299;BME280;66361;52.034;20.656;2023-02-28T14:02:45;101226.56;;;2.30;52.38
77299;BME280;66361;52.034;20.656;2023-02-28T14:06:53;101219.72;;;2.22;53.53
77299;BME280;66361;52.034;20.656;2023-02-28T14:11:04;101217.16;;;2.17;54.61
77299;BME280;66361;52.034;20.656;2023-02-28T14:15:43;101217.22;;;2.11;55.15
77299;BME280;66361;52.034;20.656;2023-02-28T14:19:50;101201.66;;;2.05;53.87
77299;BME280;66361;52.034;20.656;2023-02-28T14:28:47;101193.19;;;1.86;55.92
77299;BME280;66361;52.034;20.656;2023-02-28T14:33:03;101187.25;;;1.77;56.41
77299;BME280;66361;52.034;20.656;2023-02-28T14:37:14;101186.44;;;1.70;57.01
77299;BME280;66361;52.034;20.656;2023-02-28T14:41:22;101180.44;;;1.64;56.34
77299;BME280;66361;52.034;20.656;2023-02-28T14:45:27;101190.94;;;1.56;57.27
77299;BME280;66361;52.034;20.656;2023-02-28T14:49:36;101191.00;;;1.47;57.31
77299;BME280;66361;52.034;20.656;2023-02-28T14:53:41;101178.06;;;1.38;57.75
77299;BME280;66361;52.034;20.656;2023-02-28T14:57:54;101178.97;;;1.35;58.20
77299;BME280;66361;52.034;20.656;2023-02-28T15:02:15;101177.38;;;1.22;59.22
77299;BME280;66361;52.034;20.656;2023-02-28T15:06:20;101184.31;;;1.20;59.96
77299;BME280;66361;52.034;20.656;2023-02-28T15:10:27;101178.31;;;1.11;60.04
77299;BME280;66361;52.034;20.656;2023-02-28T15:14:32;101172.34;;;0.98;60.36
77299;BME280;66361;52.034;20.656;2023-02-28T15:18:43;101175.94;;;0.85;60.30
77299;BME280;66361;52.034;20.656;2023-02-28T15:22:50;101171.69;;;0.67;59.77
77299;BME280;66361;52.034;20.656;2023-02-28T15:26:57;101169.22;;;0.49;60.10
77299;BME280;66361;52.034;20.656;2023-02-28T15:31:03;101177.09;;;0.34;61.52
77299;BME280;66361;52.034;20.656;2023-02-28T15:35:30;101174.59;;;0.13;62.58
77299;BME280;66361;52.034;20.656;2023-02-28T15:39:42;101169.50;;;-0.13;63.50
77299;BME280;66361;52.034;20.656;2023-02-28T15:43:46;101167.81;;;-0.29;65.42
77299;BME280;66361;52.034;20.656;2023-02-28T15:47:50;101167.84;;;-0.54;65.70
77299;BME280;66361;52.034;20.656;2023-02-28T15:51:57;101173.94;;;-0.80;67.31
77299;BME280;66361;52.034;20.656;2023-02-28T15:56:05;101181.69;;;-1.06;69.35
77299;BME280;66361;52.034;20.656;2023-02-28T16:00:12;101177.38;;;-1.27;70.19
77299;BME280;66361;52.034;20.656;2023-02-28T16:04:18;101173.88;;;-1.53;69.71
77299;BME280;66361;52.034;20.656;2023-02-28T16:08:26;101172.94;;;-1.79;70.33
77299;BME280;66361;52.034;20.656;2023-02-28T16:12:31;101185.75;;;-2.04;72.01
77299;BME280;66361;52.034;20.656;2023-02-28T16:16:42;101189.97;;;-2.24;74.72
77299;BME280;66361;52.034;20.656;2023-02-28T16:20:45;101187.28;;;-2.42;74.50
77299;BME280;66361;52.034;20.656;2023-02-28T16:24:52;101184.56;;;-2.59;73.98
77299;BME280;66361;52.034;20.656;2023-02-28T16:28:59;101187.91;;;-2.73;74.66
77299;BME280;66361;52.034;20.656;2023-02-28T16:33:04;101194.69;;;-2.89;75.57
77299;BME280;66361;52.034;20.656;2023-02-28T16:37:13;101191.09;;;-3.06;75.60
77299;BME280;66361;52.034;20.656;2023-02-28T16:41:19;101184.97;;;-3.20;76.16
77299;BME280;66361;52.034;20.656;2023-02-28T16:45:27;101183.94;;;-3.34;77.62
77299;BME280;66361;52.034;20.656;2023-02-28T16:49:30;101184.72;;;-3.45;79.41
77299;BME280;66361;52.034;20.656;2023-02-28T16:53:34;101194.03;;;-3.57;78.58
77299;BME280;66361;52.034;20.656;2023-02-28T16:57:43;101205.16;;;-3.63;80.69
77299;BME280;66361;52.034;20.656;2023-02-28T17:01:47;101210.25;;;-3.69;82.29
77299;BME280;66361;52.034;20.656;2023-02-28T17:05:53;101208.41;;;-3.76;82.25
77299;BME280;66361;52.034;20.656;2023-02-28T17:10:01;101204.94;;;-3.79;83.84
77299;BME280;66361;52.034;20.656;2023-02-28T17:14:12;101193.72;;;-3.84;83.82
77299;BME280;66361;52.034;20.656;2023-02-28T17:18:18;101197.09;;;-3.90;85.94
77299;BME280;66361;52.034;20.656;2023-02-28T17:22:25;101191.03;;;-3.95;86.64
77299;BME280;66361;52.034;20.656;2023-02-28T17:26:29;101202.16;;;-3.98;88.13
77299;BME280;66361;52.034;20.656;2023-02-28T17:30:34;101204.72;;;-3.99;86.99
77299;BME280;66361;52.034;20.656;2023-02-28T17:34:39;101218.38;;;-4.05;87.88
77299;BME280;66361;52.034;20.656;2023-02-28T17:38:42;101212.41;;;-4.04;88.30
77299;BME280;66361;52.034;20.656;2023-02-28T17:42:45;101220.03;;;-4.10;87.51
77299;BME280;66361;52.034;20.656;2023-02-28T17:46:54;101219.91;;;-4.19;87.10
77299;BME280;66361;52.034;20.656;2023-02-28T17:50:59;101222.34;;;-4.28;87.07
77299;BME280;66361;52.034;20.656;2023-02-28T17:55:01;101217.97;;;-4.35;87.29
77299;BME280;66361;52.034;20.656;2023-02-28T17:59:08;101214.47;;;-4.39;86.81
77299;BME280;66361;52.034;20.656;2023-02-28T18:03:12;101212.69;;;-4.44;87.70
77299;BME280;66361;52.034;20.656;2023-02-28T18:07:20;101213.50;;;-4.48;89.09
77299;BME280;66361;52.034;20.656;2023-02-28T18:11:29;101206.56;;;-4.51;88.83
77299;BME280;66361;52.034;20.656;2023-02-28T18:15:43;101201.38;;;-4.54;89.14
77299;BME280;66361;52.034;20.656;2023-02-28T18:19:46;101186.78;;;-4.53;91.36
77299;BME280;66361;52.034;20.656;2023-02-28T18:23:54;101193.66;;;-4.55;92.32
77299;BME280;66361;52.034;20.656;2023-02-28T18:27:57;101189.31;;;-4.56;94.25
77299;BME280;66361;52.034;20.656;2023-02-28T18:32:01;101183.28;;;-4.58;95.05
77299;BME280;66361;52.034;20.656;2023-02-28T18:36:07;101191.78;;;-4.64;94.11
77299;BME280;66361;52.034;20.656;2023-02-28T18:40:13;101181.41;;;-4.70;94.90
77299;BME280;66361;52.034;20.656;2023-02-28T18:44:17;101177.88;;;-4.75;96.01
77299;BME280;66361;52.034;20.656;2023-02-28T18:48:22;101178.72;;;-4.76;97.72
77299;BME280;66361;52.034;20.656;2023-02-28T18:52:25;101172.69;;;-4.76;99.02
77299;BME280;66361;52.034;20.656;2023-02-28T18:56:30;101171.81;;;-4.78;99.97
77299;BME280;66361;52.034;20.656;2023-02-28T19:00:33;101163.16;;;-4.83;98.99
77299;BME280;66361;52.034;20.656;2023-02-28T19:04:37;101157.13;;;-4.89;100.00
77299;BME280;66361;52.034;20.656;2023-02-28T19:08:42;101151.03;;;-4.94;100.00
77299;BME280;66361;52.034;20.656;2023-02-28T19:12:50;101150.06;;;-4.99;100.00
77299;BME280;66361;52.034;20.656;2023-02-28T19:16:53;101142.22;;;-5.06;100.00
77299;BME280;66361;52.034;20.656;2023-02-28T19:20:56;101140.44;;;-5.10;100.00
77299;BME280;66361;52.034;20.656;2023-02-28T19:25:00;101145.47;;;-5.18;100.00
77299;BME280;66361;52.034;20.656;2023-02-28T19:29:05;101147.91;;;-5.27;100.00
77299;BME280;66361;52.034;20.656;2023-02-28T19:33:09;101153.84;;;-5.31;100.00
77299;BME280;66361;52.034;20.656;2023-02-28T19:37:15;101169.31;;;-5.28;100.00
77299;BME280;66361;52.034;20.656;2023-02-28T19:41:19;101169.22;;;-5.34;99.92
77299;BME280;66361;52.034;20.656;2023-02-28T19:45:24;101178.56;;;-5.39;100.00
77299;BME280;66361;52.034;20.656;2023-02-28T19:49:32;101189.59;;;-5.45;100.00
77299;BME280;66361;52.034;20.656;2023-02-28T19:53:37;101185.38;;;-5.43;100.00
77299;BME280;66361;52.034;20.656;2023-02-28T19:57:41;101182.75;;;-5.46;100.00
77299;BME280;66361;52.034;20.656;2023-02-28T20:01:46;101197.16;;;-5.54;100.00
77299;BME280;66361;52.034;20.656;2023-02-28T20:05:59;101207.34;;;-5.58;100.00
77299;BME280;66361;52.034;20.656;2023-02-28T20:10:02;101207.34;;;-5.60;100.00
77299;BME280;66361;52.034;20.656;2023-02-28T20:14:06;101208.13;;;-5.64;100.00
77299;BME280;66361;52.034;20.656;2023-02-28T20:18:10;101191.78;;;-5.67;100.00
77299;BME280;66361;52.034;20.656;2023-02-28T20:22:13;101188.22;;;-5.72;100.00
77299;BME280;66361;52.034;20.656;2023-02-28T20:26:17;101197.56;;;-5.77;100.00
77299;BME280;66361;52.034;20.656;2023-02-28T20:30:20;101195.81;;;-5.78;100.00
77299;BME280;66361;52.034;20.656;2023-02-28T20:34:26;101201.75;;;-5.82;100.00
77299;BME280;66361;52.034;20.656;2023-02-28T20:38:29;101193.91;;;-5.89;100.00
77299;BME280;66361;52.034;20.656;2023-02-28T20:42:35;101180.19;;;-5.89;100.00
77299;BME280;66361;52.034;20.656;2023-02-28T20:46:38;101183.53;;;-5.93;100.00
77299;BME280;66361;52.034;20.656;2023-02-28T20:50:48;101180.03;;;-5.97;100.00
77299;BME280;66361;52.034;20.656;2023-02-28T20:54:51;101179.16;;;-5.99;100.00
77299;BME280;66361;52.034;20.656;2023-02-28T20:58:55;101177.44;;;-5.98;100.00
77299;BME280;66361;52.034;20.656;2023-02-28T21:02:58;101177.31;;;-6.04;100.00
77299;BME280;66361;52.034;20.656;2023-02-28T21:07:08;101183.25;;;-6.07;100.00
77299;BME280;66361;52.034;20.656;2023-02-28T21:11:14;101183.22;;;-6.08;100.00
77299;BME280;66361;52.034;20.656;2023-02-28T21:15:18;101170.25;;;-6.14;100.00
77299;BME280;66361;52.034;20.656;2023-02-28T21:19:21;101152.28;;;-6.14;100.00
77299;BME280;66361;52.034;20.656;2023-02-28T21:23:26;101163.41;;;-6.14;100.00
77299;BME280;66361;52.034;20.656;2023-02-28T21:27:29;101179.44;;;-6.25;100.00
77299;BME280;66361;52.034;20.656;2023-02-28T21:31:33;101183.69;;;-6.27;100.00